createdAt,value
2018-08-24T00:00:15.560Z,0.00
2018-08-24T00:03:15.546Z,0.00
2018-08-24T00:06:15.477Z,0.00
2018-08-24T00:09:15.490Z,0.00
2018-08-24T00:12:15.398Z,0.00
2018-08-24T00:15:15.391Z,0.00
2018-08-24T00:18:15.348Z,0.00
2018-08-24T00:21:15.331Z,0.00
2018-08-24T00:24:15.284Z,0.00
2018-08-24T00:27:15.634Z,0.00
2018-08-24T00:30:15.233Z,0.00
2018-08-24T00:33:15.166Z,0.00
2018-08-24T00:36:15.126Z,0.00
2018-08-24T00:39:15.119Z,0.00
2018-08-24T00:42:15.063Z,0.00
2018-08-24T00:45:15.063Z,0.00
2018-08-24T00:48:15.008Z,0.00
2018-08-24T00:51:14.966Z,0.00
2018-08-24T00:54:14.946Z,0.00
2018-08-24T00:57:14.935Z,0.00
2018-08-24T01:00:14.858Z,0.00
2018-08-24T01:03:14.837Z,0.00
2018-08-24T01:06:14.798Z,0.00
2018-08-24T01:09:14.776Z,0.00
2018-08-24T01:12:14.753Z,0.00
2018-08-24T01:15:14.704Z,0.00
2018-08-24T01:18:14.678Z,0.00
2018-08-24T01:21:14.677Z,0.00
2018-08-24T01:24:14.609Z,0.00
2018-08-24T01:27:14.564Z,0.00
2018-08-24T01:30:14.542Z,0.00
2018-08-24T01:33:14.494Z,0.00
2018-08-24T01:36:14.457Z,0.00
2018-08-24T01:39:14.443Z,0.00
2018-08-24T01:42:14.405Z,0.00
2018-08-24T01:45:14.362Z,0.00
2018-08-24T01:48:14.484Z,0.00
2018-08-24T01:51:14.321Z,0.00
2018-08-24T01:54:14.267Z,0.00
2018-08-24T01:57:14.239Z,0.00
2018-08-24T02:00:14.182Z,0.00
2018-08-24T02:03:14.198Z,0.00
2018-08-24T02:06:14.116Z,0.00
2018-08-24T02:09:14.118Z,0.00
2018-08-24T02:12:14.063Z,0.00
2018-08-24T02:15:14.074Z,0.00
2018-08-24T02:18:13.974Z,0.00
2018-08-24T02:21:13.951Z,0.00
2018-08-24T02:24:13.901Z,0.00
2018-08-24T02:27:13.914Z,0.00
2018-08-24T02:30:13.840Z,0.00
2018-08-24T02:33:13.864Z,0.00
2018-08-24T02:36:13.778Z,0.00
2018-08-24T02:39:13.759Z,0.00
2018-08-24T02:42:13.729Z,0.00
2018-08-24T02:45:13.695Z,0.00
2018-08-24T02:48:13.671Z,0.00
2018-08-24T02:51:13.607Z,0.00
2018-08-24T02:54:13.586Z,0.00
2018-08-24T02:57:13.543Z,0.00
2018-08-24T03:00:13.494Z,0.00
2018-08-24T03:03:13.484Z,0.00
2018-08-24T03:06:13.422Z,0.00
2018-08-24T03:09:13.456Z,0.00
2018-08-24T03:12:13.361Z,0.00
2018-08-24T03:15:13.339Z,0.00
2018-08-24T03:18:13.285Z,0.00
2018-08-24T03:21:13.295Z,0.00
2018-08-24T03:24:13.242Z,0.00
2018-08-24T03:27:13.227Z,0.00
2018-08-24T03:30:13.155Z,0.00
2018-08-24T03:33:13.129Z,0.00
2018-08-24T03:36:13.115Z,0.00
2018-08-24T03:39:13.058Z,0.00
2018-08-24T03:42:13.036Z,0.00
2018-08-24T03:45:13.008Z,0.00
2018-08-24T03:48:12.951Z,0.00
2018-08-24T03:51:12.943Z,0.00
2018-08-24T03:54:12.894Z,0.00
2018-08-24T03:57:12.873Z,0.00
2018-08-24T04:00:12.808Z,0.00
2018-08-24T04:03:12.854Z,0.00
2018-08-24T04:06:12.822Z,0.00
2018-08-24T04:09:12.974Z,0.00
2018-08-24T04:12:12.680Z,0.00
2018-08-24T04:15:12.656Z,0.00
2018-08-24T04:18:12.602Z,0.00
2018-08-24T04:21:12.623Z,0.00
2018-08-24T04:24:12.542Z,0.00
2018-08-24T04:27:12.520Z,0.00
2018-08-24T04:30:12.493Z,0.00
2018-08-24T04:33:12.470Z,0.00
2018-08-24T04:36:12.403Z,0.00
2018-08-24T04:39:12.391Z,5.62
2018-08-24T04:42:12.332Z,11.25
2018-08-24T04:45:12.328Z,11.25
2018-08-24T04:48:12.270Z,16.88
2018-08-24T04:51:12.236Z,16.88
2018-08-24T04:54:12.261Z,22.50
2018-08-24T04:57:12.276Z,22.50
2018-08-24T05:00:12.123Z,16.88
2018-08-24T05:03:12.126Z,11.25
2018-08-24T05:06:12.088Z,28.12
2018-08-24T05:09:12.047Z,33.75
2018-08-24T05:12:11.985Z,22.50
2018-08-24T05:15:12.016Z,33.75
2018-08-24T05:18:11.933Z,50.62
2018-08-24T05:21:11.969Z,33.75
2018-08-24T05:24:11.882Z,67.50
2018-08-24T05:27:11.839Z,84.38
2018-08-24T05:30:11.839Z,90.00
2018-08-24T05:33:11.790Z,95.62
2018-08-24T05:36:12.261Z,95.62
2018-08-24T05:39:11.701Z,112.50
2018-08-24T05:42:11.684Z,135.00
2018-08-24T05:45:11.641Z,157.50
2018-08-24T05:48:11.604Z,163.12
2018-08-24T05:51:11.794Z,168.75
2018-08-24T05:54:11.519Z,140.62
2018-08-24T05:57:11.512Z,101.25
2018-08-24T06:00:11.461Z,106.88
2018-08-24T06:03:11.435Z,84.38
2018-08-24T06:06:11.376Z,90.00
2018-08-24T06:09:11.374Z,95.62
2018-08-24T06:12:11.331Z,112.50
2018-08-24T06:15:11.335Z,90.00
2018-08-24T06:18:11.252Z,112.50
2018-08-24T06:21:11.246Z,135.00
2018-08-24T06:24:11.177Z,151.88
2018-08-24T06:27:11.153Z,106.88
2018-08-24T06:30:11.170Z,191.25
2018-08-24T06:33:11.126Z,101.25
2018-08-24T06:36:11.117Z,106.88
2018-08-24T06:39:11.025Z,84.38
2018-08-24T06:42:10.972Z,95.62
2018-08-24T06:45:11.019Z,101.25
2018-08-24T06:48:10.907Z,185.62
2018-08-24T06:51:11.900Z,275.62
2018-08-24T06:54:10.832Z,264.38
2018-08-24T06:57:10.807Z,247.50
2018-08-24T07:00:10.795Z,219.38
2018-08-24T07:03:10.861Z,185.62
2018-08-24T07:06:10.799Z,146.25
2018-08-24T07:09:10.702Z,123.75
2018-08-24T07:12:10.729Z,90.00
2018-08-24T07:15:10.611Z,90.00
2018-08-24T07:18:10.590Z,270.00
2018-08-24T07:21:10.539Z,326.25
2018-08-24T07:24:10.505Z,275.62
2018-08-24T07:27:10.485Z,230.62
2018-08-24T07:30:10.455Z,236.25
2018-08-24T07:33:10.408Z,140.62
2018-08-24T07:36:10.402Z,168.75
2018-08-24T07:39:10.367Z,168.75
2018-08-24T07:42:10.328Z,191.25
2018-08-24T07:45:10.279Z,168.75
2018-08-24T07:48:10.268Z,180.00
2018-08-24T07:51:10.285Z,191.25
2018-08-24T07:54:10.243Z,270.00
2018-08-24T07:57:10.555Z,292.50
2018-08-24T08:00:10.233Z,326.25
2018-08-24T08:03:10.173Z,258.75
2018-08-24T08:06:10.031Z,596.25
2018-08-24T08:09:10.048Z,551.25
2018-08-24T08:12:10.021Z,646.88
2018-08-24T08:15:09.986Z,933.75
2018-08-24T08:18:10.024Z,590.62
2018-08-24T08:21:09.952Z,275.62
2018-08-24T08:24:10.767Z,309.38
2018-08-24T08:27:10.823Z,466.88
2018-08-24T08:30:09.838Z,585.00
2018-08-24T08:33:09.747Z,568.12
2018-08-24T08:36:09.689Z,466.88
2018-08-24T08:39:09.798Z,376.88
2018-08-24T08:42:09.650Z,337.50
2018-08-24T08:45:10.614Z,495.00
2018-08-24T08:48:10.571Z,624.38
2018-08-24T08:51:09.521Z,455.62
2018-08-24T08:54:09.512Z,680.62
2018-08-24T08:57:09.630Z,1057.50
2018-08-24T09:00:09.432Z,562.50
2018-08-24T09:03:09.379Z,838.12
2018-08-24T09:06:10.507Z,765.00
2018-08-24T09:09:09.370Z,585.00
2018-08-24T09:12:09.281Z,489.38
2018-08-24T09:15:09.369Z,382.50
2018-08-24T09:18:10.773Z,388.12
2018-08-24T09:21:09.196Z,517.50
2018-08-24T09:24:09.179Z,945.00
2018-08-24T09:27:09.200Z,945.00
2018-08-24T09:30:09.165Z,680.62
2018-08-24T09:33:09.149Z,950.62
2018-08-24T09:36:09.016Z,939.38
2018-08-24T09:39:08.983Z,2463.75
2018-08-24T09:42:08.968Z,1046.25
2018-08-24T09:45:08.910Z,978.75
2018-08-24T09:48:08.977Z,978.75
2018-08-24T09:51:08.863Z,787.50
2018-08-24T09:54:08.829Z,967.50
2018-08-24T09:57:08.804Z,888.75
2018-08-24T10:00:08.773Z,686.25
2018-08-24T10:03:08.739Z,635.62
2018-08-24T10:06:08.733Z,871.88
2018-08-24T10:09:08.718Z,2435.62
2018-08-24T10:12:08.627Z,1063.12
2018-08-24T10:15:08.657Z,916.88
2018-08-24T10:18:08.581Z,2671.88
2018-08-24T10:21:08.549Z,2615.62
2018-08-24T10:24:08.597Z,2379.38
2018-08-24T10:27:08.511Z,2463.75
2018-08-24T10:30:08.458Z,2643.75
2018-08-24T10:33:08.415Z,2514.38
2018-08-24T10:36:08.468Z,2508.75
2018-08-24T10:39:08.508Z,2610.00
2018-08-24T10:42:08.378Z,2182.50
2018-08-24T10:45:08.284Z,2722.50
2018-08-24T10:48:08.329Z,2503.12
2018-08-24T10:51:08.243Z,2576.25
2018-08-24T10:54:08.212Z,2655.00
2018-08-24T10:57:08.137Z,2553.75
2018-08-24T11:00:08.203Z,2593.12
2018-08-24T11:03:08.077Z,2565.00
2018-08-24T11:06:08.070Z,2576.25
2018-08-24T11:09:08.057Z,2604.38
2018-08-24T11:12:08.066Z,2756.25
2018-08-24T11:15:07.969Z,2638.12
2018-08-24T11:18:07.945Z,2705.62
2018-08-24T11:21:07.988Z,2542.50
2018-08-24T11:24:07.889Z,2604.38
2018-08-24T11:27:07.852Z,2216.25
2018-08-24T11:30:07.871Z,2418.75
2018-08-24T11:33:07.770Z,2587.50
2018-08-24T11:36:07.915Z,2666.25
2018-08-24T11:39:07.701Z,1951.88
2018-08-24T11:42:07.753Z,2356.88
2018-08-24T11:45:07.681Z,1777.50
2018-08-24T11:48:07.621Z,2396.25
2018-08-24T11:51:09.295Z,2559.38
2018-08-24T11:54:07.665Z,2458.12
2018-08-24T11:57:07.570Z,2154.38
2018-08-24T12:00:07.559Z,2396.25
2018-08-24T12:03:07.465Z,2300.62
2018-08-24T12:06:07.440Z,2115.00
2018-08-24T12:09:07.371Z,2463.75
2018-08-24T12:12:07.410Z,2238.75
2018-08-24T12:15:07.385Z,1833.75
2018-08-24T12:18:07.335Z,2328.75
2018-08-24T12:21:07.336Z,2120.62
2018-08-24T12:24:07.224Z,2401.88
2018-08-24T12:27:08.443Z,2452.50
2018-08-24T12:30:07.182Z,2424.38
2018-08-24T12:33:07.171Z,2199.38
2018-08-24T12:36:07.148Z,2345.62
2018-08-24T12:39:07.137Z,2199.38
2018-08-24T12:42:07.092Z,1018.12
2018-08-24T12:45:07.008Z,1181.25
2018-08-24T12:48:07.026Z,1080.00
2018-08-24T12:51:06.958Z,888.75
2018-08-24T12:54:06.939Z,888.75
2018-08-24T12:57:06.864Z,1130.62
2018-08-24T13:00:06.951Z,2025.00
2018-08-24T13:03:06.796Z,2289.38
2018-08-24T13:06:06.831Z,2244.38
2018-08-24T13:09:06.746Z,2401.88
2018-08-24T13:12:06.734Z,2244.38
2018-08-24T13:15:06.673Z,2092.50
2018-08-24T13:18:06.672Z,1693.12
2018-08-24T13:21:06.644Z,1006.88
2018-08-24T13:24:06.580Z,1636.88
2018-08-24T13:27:06.607Z,1693.12
2018-08-24T13:30:06.510Z,1417.50
2018-08-24T13:33:06.485Z,1591.88
2018-08-24T13:36:06.478Z,1957.50
2018-08-24T13:39:06.538Z,1845.00
2018-08-24T13:42:06.456Z,1698.75
2018-08-24T13:45:06.384Z,1485.00
2018-08-24T13:48:06.334Z,1085.62
2018-08-24T13:51:06.347Z,961.88
2018-08-24T13:54:06.297Z,905.62
2018-08-24T13:57:06.236Z,939.38
2018-08-24T14:00:06.344Z,995.62
2018-08-24T14:03:06.176Z,1029.38
2018-08-24T14:06:06.133Z,956.25
2018-08-24T14:09:06.095Z,855.00
2018-08-24T14:12:06.082Z,877.50
2018-08-24T14:15:06.053Z,888.75
2018-08-24T14:18:06.029Z,860.62
2018-08-24T14:21:05.994Z,866.25
2018-08-24T14:24:05.994Z,838.12
2018-08-24T14:27:05.890Z,753.75
2018-08-24T14:30:05.873Z,798.75
2018-08-24T14:33:05.821Z,928.12
2018-08-24T14:36:05.807Z,900.00
2018-08-24T14:39:05.766Z,838.12
2018-08-24T14:42:05.770Z,736.88
2018-08-24T14:45:05.690Z,652.50
2018-08-24T14:48:05.713Z,630.00
2018-08-24T14:51:05.624Z,613.12
2018-08-24T14:54:05.623Z,601.88
2018-08-24T14:57:05.567Z,607.50
2018-08-24T15:00:05.532Z,663.75
2018-08-24T15:03:05.496Z,675.00
2018-08-24T15:06:05.473Z,624.38
2018-08-24T15:09:05.423Z,613.12
2018-08-24T15:12:05.401Z,590.62
2018-08-24T15:15:05.394Z,545.62
2018-08-24T15:18:05.333Z,511.88
2018-08-24T15:21:05.306Z,528.75
2018-08-24T15:24:05.283Z,534.38
2018-08-24T15:27:05.226Z,534.38
2018-08-24T15:30:05.214Z,534.38
2018-08-24T15:33:05.162Z,523.12
2018-08-24T15:36:05.211Z,540.00
2018-08-24T15:39:05.107Z,556.88
2018-08-24T15:42:05.103Z,562.50
2018-08-24T15:45:05.058Z,551.25
2018-08-24T15:48:05.041Z,556.88
2018-08-24T15:51:05.099Z,579.38
2018-08-24T15:54:04.942Z,652.50
2018-08-24T15:57:04.916Z,646.88
2018-08-24T16:00:04.973Z,725.62
2018-08-24T16:03:04.827Z,680.62
2018-08-24T16:06:04.816Z,601.88
2018-08-24T16:09:04.811Z,517.50
2018-08-24T16:12:04.780Z,478.12
2018-08-24T16:15:04.731Z,511.88
2018-08-24T16:18:04.694Z,573.75
2018-08-24T16:21:04.633Z,630.00
2018-08-24T16:24:04.616Z,691.88
2018-08-24T16:27:04.552Z,590.62
2018-08-24T16:30:04.590Z,528.75
2018-08-24T16:33:04.492Z,478.12
2018-08-24T16:36:04.468Z,433.12
2018-08-24T16:39:04.438Z,388.12
2018-08-24T16:42:04.401Z,337.50
2018-08-24T16:45:04.348Z,320.62
2018-08-24T16:48:04.323Z,320.62
2018-08-24T16:51:04.305Z,320.62
2018-08-24T16:54:04.260Z,309.38
2018-08-24T16:57:04.285Z,292.50
2018-08-24T17:00:04.752Z,360.00
2018-08-24T17:03:04.172Z,331.88
2018-08-24T17:06:04.146Z,337.50
2018-08-24T17:09:04.107Z,309.38
2018-08-24T17:12:05.904Z,275.62
2018-08-24T17:15:04.006Z,253.12
2018-08-24T17:18:03.991Z,225.00
2018-08-24T17:21:03.941Z,219.38
2018-08-24T17:24:03.915Z,219.38
2018-08-24T17:27:03.933Z,213.75
2018-08-24T17:30:03.837Z,185.62
2018-08-24T17:33:03.813Z,157.50
2018-08-24T17:36:03.763Z,146.25
2018-08-24T17:39:03.727Z,135.00
2018-08-24T17:42:03.769Z,123.75
2018-08-24T17:45:03.673Z,112.50
2018-08-24T17:48:03.713Z,95.62
2018-08-24T17:51:03.627Z,90.00
2018-08-24T17:54:03.569Z,84.38
2018-08-24T17:57:03.541Z,78.75
2018-08-24T18:00:03.528Z,67.50
2018-08-24T18:03:03.452Z,61.88
2018-08-24T18:06:03.454Z,61.88
2018-08-24T18:09:03.388Z,50.62
2018-08-24T18:12:03.384Z,39.38
2018-08-24T18:15:03.497Z,33.75
2018-08-24T18:18:03.295Z,28.12
2018-08-24T18:21:03.292Z,28.12
2018-08-24T18:24:03.238Z,22.50
2018-08-24T18:27:03.228Z,16.88
2018-08-24T18:30:03.169Z,11.25
2018-08-24T18:33:03.086Z,5.62
2018-08-24T18:36:03.074Z,5.62
2018-08-24T18:39:03.110Z,5.62
2018-08-24T18:42:03.026Z,5.62
2018-08-24T18:45:02.990Z,0.00
2018-08-24T18:48:02.926Z,0.00
2018-08-24T18:51:02.900Z,0.00
2018-08-24T18:54:02.956Z,0.00
2018-08-24T18:57:02.936Z,0.00
2018-08-24T19:00:02.800Z,0.00
2018-08-24T19:03:02.795Z,0.00
2018-08-24T19:06:02.740Z,0.00
2018-08-24T19:09:03.273Z,0.00
2018-08-24T19:12:02.646Z,0.00
2018-08-24T19:15:02.602Z,0.00
2018-08-24T19:18:02.577Z,0.00
2018-08-24T19:21:02.555Z,0.00
2018-08-24T19:24:02.521Z,0.00
2018-08-24T19:27:02.527Z,0.00
2018-08-24T19:30:02.451Z,0.00
2018-08-24T19:33:02.398Z,0.00
2018-08-24T19:36:02.384Z,0.00
2018-08-24T19:39:02.322Z,0.00
2018-08-24T19:42:02.309Z,0.00
2018-08-24T19:45:02.272Z,0.00
2018-08-24T19:48:02.241Z,0.00
2018-08-24T19:51:02.180Z,0.00
2018-08-24T19:54:02.169Z,0.00
2018-08-24T19:57:02.117Z,0.00
2018-08-24T20:00:02.098Z,0.00
2018-08-24T20:03:02.058Z,0.00
2018-08-24T20:06:02.030Z,0.00
2018-08-24T20:09:01.976Z,0.00
2018-08-24T20:12:02.995Z,0.00
2018-08-24T20:15:01.912Z,0.00
2018-08-24T20:18:01.913Z,0.00
2018-08-24T20:21:01.853Z,0.00
2018-08-24T20:24:03.289Z,0.00
2018-08-24T20:27:02.792Z,0.00
2018-08-24T20:30:01.799Z,0.00
2018-08-24T20:33:01.734Z,0.00
2018-08-24T20:36:01.693Z,0.00
2018-08-24T20:39:01.682Z,0.00
2018-08-24T20:42:03.261Z,0.00
2018-08-24T20:45:01.572Z,0.00
2018-08-24T20:48:01.565Z,0.00
2018-08-24T20:51:01.499Z,0.00
2018-08-24T20:54:01.491Z,0.00
2018-08-24T20:57:01.438Z,0.00
2018-08-24T21:00:01.442Z,0.00
2018-08-24T21:03:01.373Z,0.00
2018-08-24T21:06:01.357Z,0.00
2018-08-24T21:09:01.330Z,0.00
2018-08-24T21:12:01.277Z,0.00
2018-08-24T21:15:01.348Z,0.00
2018-08-24T21:18:01.224Z,0.00
2018-08-24T21:21:01.157Z,0.00
2018-08-24T21:24:01.159Z,0.00
2018-08-24T21:27:01.215Z,0.00
2018-08-24T21:30:01.108Z,0.00
2018-08-24T21:33:01.017Z,0.00
2018-08-24T21:36:01.042Z,0.00
2018-08-24T21:39:00.972Z,0.00
2018-08-24T21:42:00.990Z,0.00
2018-08-24T21:45:00.886Z,0.00
2018-08-24T21:48:00.919Z,0.00
2018-08-24T21:51:00.823Z,0.00
2018-08-24T21:54:00.832Z,0.00
2018-08-24T21:57:00.747Z,0.00
2018-08-24T22:00:00.758Z,0.00
2018-08-24T22:03:00.727Z,0.00
2018-08-24T22:06:00.687Z,0.00
2018-08-24T22:09:00.628Z,0.00
2018-08-24T22:12:00.622Z,0.00
2018-08-24T22:15:00.577Z,0.00
2018-08-24T22:18:00.542Z,0.00
2018-08-24T22:21:00.506Z,0.00
2018-08-24T22:24:00.483Z,0.00
2018-08-24T22:27:00.416Z,0.00
2018-08-24T22:30:02.330Z,0.00
2018-08-24T22:33:00.350Z,0.00
2018-08-24T22:36:00.340Z,0.00
2018-08-24T22:39:00.308Z,0.00
2018-08-24T22:42:00.270Z,0.00
2018-08-24T22:45:00.245Z,0.00
2018-08-24T22:48:00.194Z,0.00
2018-08-24T22:51:00.159Z,0.00
2018-08-24T22:54:00.163Z,0.00
2018-08-24T22:57:00.141Z,0.00
2018-08-24T23:00:00.119Z,0.00
2018-08-24T23:03:00.026Z,0.00
2018-08-24T23:05:59.999Z,0.00
2018-08-24T23:08:59.932Z,0.00
2018-08-24T23:12:01.763Z,0.00
2018-08-24T23:14:59.877Z,0.00
2018-08-24T23:17:59.875Z,0.00
2018-08-24T23:20:59.823Z,0.00
2018-08-24T23:23:59.803Z,0.00
2018-08-24T23:26:59.762Z,0.00
2018-08-24T23:29:59.721Z,0.00
2018-08-24T23:32:59.696Z,0.00
2018-08-24T23:36:00.767Z,0.00
2018-08-24T23:38:59.606Z,0.00
2018-08-24T23:41:59.575Z,0.00
2018-08-24T23:44:59.527Z,0.00
2018-08-24T23:47:59.531Z,0.00
2018-08-24T23:50:59.476Z,0.00
2018-08-24T23:53:59.441Z,0.00
2018-08-24T23:56:59.417Z,0.00
2018-08-24T23:59:59.365Z,0.00
